createdAt,value
2023-04-09T00:00:03.022Z,20.83
2023-04-09T00:02:29.681Z,20.77
2023-04-09T00:04:56.328Z,20.57
2023-04-09T00:07:22.906Z,20.57
2023-04-09T00:09:49.488Z,21.93
2023-04-09T00:12:16.132Z,20.33
2023-04-09T00:14:42.764Z,21.90
2023-04-09T00:17:09.414Z,19.47
2023-04-09T00:19:36.643Z,21.20
2023-04-09T00:22:03.235Z,21.60
2023-04-09T00:24:29.872Z,20.53
2023-04-09T00:26:57.209Z,21.17
2023-04-09T00:29:23.878Z,21.60
2023-04-09T00:31:50.858Z,20.33
2023-04-09T00:34:17.609Z,19.07
2023-04-09T00:36:44.225Z,20.30
2023-04-09T00:39:11.438Z,20.03
2023-04-09T00:41:38.028Z,20.43
2023-04-09T00:44:04.766Z,20.87
2023-04-09T00:46:32.618Z,19.40
2023-04-09T00:48:59.898Z,19.37
2023-04-09T00:51:26.908Z,19.60
2023-04-09T00:53:54.509Z,20.43
2023-04-09T00:56:23.604Z,20.67
2023-04-09T00:58:51.152Z,21.27
2023-04-09T01:01:17.999Z,20.17
2023-04-09T01:03:45.125Z,19.97
2023-04-09T01:06:46.196Z,21.07
2023-04-09T01:09:22.221Z,21.10
2023-04-09T01:12:09.564Z,20.30
2023-04-09T01:14:54.223Z,21.27
2023-04-09T01:17:45.784Z,20.40
2023-04-09T01:20:22.618Z,21.33
2023-04-09T01:23:01.466Z,20.80
2023-04-09T01:25:34.214Z,21.93
2023-04-09T01:28:22.845Z,22.37
2023-04-09T01:30:53.090Z,20.50
2023-04-09T01:33:20.722Z,21.87
2023-04-09T01:35:49.961Z,20.90
2023-04-09T01:38:19.858Z,20.40
2023-04-09T01:40:47.193Z,21.53
2023-04-09T01:43:15.109Z,21.77
2023-04-09T01:45:43.987Z,21.63
2023-04-09T01:48:11.598Z,21.83
2023-04-09T01:50:38.383Z,21.90
2023-04-09T01:53:05.967Z,22.57
2023-04-09T01:55:32.578Z,22.17
2023-04-09T01:57:59.195Z,23.23
2023-04-09T02:00:34.817Z,23.10
2023-04-09T02:03:18.600Z,22.57
2023-04-09T02:06:15.977Z,21.70
2023-04-09T02:08:47.838Z,21.00
2023-04-09T02:11:16.336Z,22.50
2023-04-09T02:13:44.316Z,22.37
2023-04-09T02:16:13.998Z,22.20
2023-04-09T02:18:40.659Z,21.67
2023-04-09T02:21:07.391Z,23.33
2023-04-09T02:23:33.988Z,23.57
2023-04-09T02:26:01.609Z,22.03
2023-04-09T02:28:28.378Z,21.40
2023-04-09T02:30:55.375Z,22.83
2023-04-09T02:33:22.786Z,23.10
2023-04-09T02:35:49.403Z,23.43
2023-04-09T02:38:16.247Z,22.20
2023-04-09T02:40:43.539Z,23.90
2023-04-09T02:43:10.755Z,22.50
2023-04-09T02:45:37.696Z,22.67
2023-04-09T02:48:07.078Z,22.80
2023-04-09T02:50:33.776Z,22.37
2023-04-09T02:53:00.427Z,22.67
2023-04-09T02:55:27.239Z,21.73
2023-04-09T02:57:53.873Z,23.37
2023-04-09T03:00:20.538Z,21.90
2023-04-09T03:02:47.519Z,23.57
2023-04-09T03:05:14.299Z,22.10
2023-04-09T03:07:40.877Z,21.83
2023-04-09T03:10:08.000Z,22.67
2023-04-09T03:12:34.580Z,22.17
2023-04-09T03:15:01.201Z,23.60
2023-04-09T03:17:27.913Z,22.83
2023-04-09T03:19:54.553Z,23.63
2023-04-09T03:22:21.226Z,21.93
2023-04-09T03:24:47.834Z,22.90
2023-04-09T03:27:14.531Z,24.00
2023-04-09T03:29:41.137Z,22.77
2023-04-09T03:32:07.822Z,22.47
2023-04-09T03:34:34.433Z,23.10
2023-04-09T03:37:01.131Z,24.20
2023-04-09T03:39:30.992Z,23.53
2023-04-09T03:41:59.070Z,22.77
2023-04-09T03:44:25.709Z,23.13
2023-04-09T03:46:53.038Z,23.53
2023-04-09T03:49:19.831Z,23.70
2023-04-09T03:51:46.416Z,24.50
2023-04-09T03:54:13.977Z,23.80
2023-04-09T03:56:40.611Z,24.63
2023-04-09T03:59:07.275Z,22.80
2023-04-09T04:01:35.008Z,23.43
2023-04-09T04:04:02.072Z,25.27
2023-04-09T04:06:28.924Z,24.40
2023-04-09T04:08:55.796Z,24.03
2023-04-09T04:11:22.359Z,25.30
2023-04-09T04:13:48.988Z,25.40
2023-04-09T04:16:16.150Z,24.20
2023-04-09T04:18:42.805Z,25.10
2023-04-09T04:21:14.983Z,26.23
2023-04-09T04:23:41.886Z,25.63
2023-04-09T04:26:12.539Z,25.00
2023-04-09T04:28:39.987Z,25.47
2023-04-09T04:31:13.571Z,25.33
2023-04-09T04:33:41.595Z,24.93
2023-04-09T04:36:13.108Z,24.97
2023-04-09T04:38:41.736Z,25.33
2023-04-09T04:41:08.720Z,24.00
2023-04-09T04:43:35.556Z,24.17
2023-04-09T04:46:02.342Z,25.30
2023-04-09T04:48:29.651Z,24.90
2023-04-09T04:51:00.514Z,24.33
2023-04-09T04:53:27.589Z,25.20
2023-04-09T04:55:54.701Z,25.23
2023-04-09T04:58:21.283Z,24.57
2023-04-09T05:00:48.005Z,24.47
2023-04-09T05:03:15.550Z,24.10
2023-04-09T05:05:42.247Z,24.43
2023-04-09T05:08:09.050Z,24.87
2023-04-09T05:10:35.752Z,25.33
2023-04-09T05:13:02.552Z,25.50
2023-04-09T05:15:29.204Z,25.10
2023-04-09T05:17:56.053Z,24.13
2023-04-09T05:20:22.932Z,22.97
2023-04-09T05:22:49.769Z,22.83
2023-04-09T05:25:16.668Z,24.67
2023-04-09T05:27:43.752Z,24.23
2023-04-09T05:30:10.859Z,24.60
2023-04-09T05:32:37.976Z,24.63
2023-04-09T05:35:05.246Z,24.23
2023-04-09T05:37:31.872Z,23.03
2023-04-09T05:39:58.599Z,24.00
2023-04-09T05:42:25.186Z,24.13
2023-04-09T05:44:51.742Z,23.60
2023-04-09T05:47:18.331Z,23.63
2023-04-09T05:49:44.897Z,23.70
2023-04-09T05:52:11.520Z,24.00
2023-04-09T05:54:38.199Z,22.43
2023-04-09T05:57:04.866Z,23.03
2023-04-09T05:59:33.911Z,23.33
2023-04-09T06:02:00.540Z,23.10
2023-04-09T06:04:28.146Z,22.43
2023-04-09T06:06:55.977Z,22.47
2023-04-09T06:09:22.569Z,23.20
2023-04-09T06:11:49.147Z,22.57
2023-04-09T06:14:18.681Z,21.87
2023-04-09T06:16:45.260Z,22.03
2023-04-09T06:19:12.611Z,21.93
2023-04-09T06:21:40.848Z,22.03
2023-04-09T06:24:07.685Z,22.23
2023-04-09T06:26:34.580Z,21.53
2023-04-09T06:29:01.183Z,21.43
2023-04-09T06:31:27.841Z,21.97
2023-04-09T06:33:54.974Z,21.00
2023-04-09T06:36:22.124Z,20.17
2023-04-09T06:38:48.722Z,20.77
2023-04-09T06:41:15.594Z,20.43
2023-04-09T06:43:42.492Z,21.10
2023-04-09T06:46:09.440Z,19.90
2023-04-09T06:48:36.257Z,22.00
2023-04-09T06:51:03.143Z,20.47
2023-04-09T06:53:29.803Z,20.17
2023-04-09T06:55:57.227Z,20.73
2023-04-09T06:58:23.979Z,19.33
2023-04-09T07:00:50.616Z,18.20
2023-04-09T07:03:17.375Z,18.97
2023-04-09T07:05:44.138Z,19.13
2023-04-09T07:08:11.863Z,18.43
2023-04-09T07:10:38.851Z,17.50
2023-04-09T07:13:05.582Z,18.43
2023-04-09T07:15:32.370Z,17.17
2023-04-09T07:17:59.017Z,18.40
2023-04-09T07:20:25.642Z,17.60
2023-04-09T07:22:52.556Z,17.27
2023-04-09T07:25:19.226Z,17.67
2023-04-09T07:27:46.198Z,17.10
2023-04-09T07:30:12.885Z,18.10
2023-04-09T07:32:39.574Z,18.77
2023-04-09T07:35:08.164Z,16.83
2023-04-09T07:37:34.772Z,16.30
2023-04-09T07:40:04.134Z,15.67
2023-04-09T07:42:31.175Z,14.97
2023-04-09T07:44:57.808Z,16.73
2023-04-09T07:47:24.500Z,16.63
2023-04-09T07:49:51.497Z,15.13
2023-04-09T07:52:18.208Z,15.97
2023-04-09T07:54:44.818Z,14.97
2023-04-09T07:57:11.406Z,14.43
2023-04-09T07:59:38.140Z,13.67
2023-04-09T08:02:07.605Z,12.80
2023-04-09T08:04:34.547Z,13.47
2023-04-09T08:07:02.306Z,10.90
2023-04-09T08:09:28.889Z,10.63
2023-04-09T08:11:56.022Z,10.67
2023-04-09T08:14:22.628Z,10.17
2023-04-09T08:16:50.437Z,9.40
2023-04-09T08:19:17.756Z,9.60
2023-04-09T08:21:44.689Z,10.13
2023-04-09T08:24:12.061Z,8.57
2023-04-09T08:26:39.982Z,8.23
2023-04-09T08:29:07.904Z,7.87
2023-04-09T08:31:34.880Z,8.20
2023-04-09T08:34:01.594Z,7.37
2023-04-09T08:36:29.038Z,6.70
2023-04-09T08:38:56.725Z,6.23
2023-04-09T08:41:24.918Z,7.00
2023-04-09T08:43:58.303Z,7.40
2023-04-09T08:46:28.860Z,6.97
2023-04-09T08:48:56.022Z,6.80
2023-04-09T08:51:24.549Z,6.53
2023-04-09T08:54:01.347Z,6.93
2023-04-09T08:56:31.273Z,5.77
2023-04-09T08:58:57.858Z,5.83
2023-04-09T09:01:29.421Z,5.50
2023-04-09T09:04:07.603Z,5.40
2023-04-09T09:06:38.935Z,5.50
2023-04-09T09:09:12.778Z,5.63
2023-04-09T09:11:46.459Z,4.73
2023-04-09T09:14:15.021Z,4.97
2023-04-09T09:16:45.131Z,4.20
2023-04-09T09:19:27.192Z,4.87
2023-04-09T09:22:06.271Z,4.63
2023-04-09T09:24:34.097Z,5.40
2023-04-09T09:27:02.964Z,5.40
2023-04-09T09:29:29.750Z,5.20
2023-04-09T09:31:56.759Z,5.67
2023-04-09T09:34:25.031Z,4.70
2023-04-09T09:36:51.680Z,5.00
2023-04-09T09:39:18.562Z,4.83
2023-04-09T09:41:47.564Z,5.10
2023-04-09T09:44:31.496Z,4.40
2023-04-09T09:46:59.008Z,4.20
2023-04-09T09:49:25.603Z,4.43
2023-04-09T09:51:53.557Z,5.37
2023-04-09T09:54:25.836Z,5.10
2023-04-09T09:56:55.952Z,5.20
2023-04-09T09:59:32.345Z,5.33
2023-04-09T10:02:06.212Z,4.60
2023-04-09T10:04:36.261Z,5.47
2023-04-09T10:07:05.905Z,5.07
2023-04-09T10:09:36.357Z,4.63
2023-04-09T10:12:07.133Z,5.00
2023-04-09T10:14:36.007Z,5.67
2023-04-09T10:17:04.404Z,5.20
2023-04-09T10:19:43.243Z,5.70
2023-04-09T10:22:16.324Z,5.40
2023-04-09T10:24:43.258Z,5.27
2023-04-09T10:27:13.650Z,4.93
2023-04-09T10:29:47.323Z,4.70
2023-04-09T10:32:23.908Z,5.13
2023-04-09T10:34:50.991Z,4.97
2023-04-09T10:37:23.092Z,4.80
2023-04-09T10:39:51.730Z,4.90
2023-04-09T10:42:49.358Z,4.27
2023-04-09T10:45:16.988Z,5.07
2023-04-09T10:47:44.399Z,4.83
2023-04-09T10:50:19.552Z,4.50
2023-04-09T10:52:46.935Z,4.47
2023-04-09T10:55:36.813Z,4.40
2023-04-09T10:58:10.456Z,4.50
2023-04-09T11:00:41.478Z,4.40
2023-04-09T11:03:21.999Z,4.10
2023-04-09T11:05:52.885Z,4.10
2023-04-09T11:08:19.931Z,4.50
2023-04-09T11:10:50.513Z,4.70
2023-04-09T11:13:20.914Z,4.73
2023-04-09T11:15:47.695Z,4.70
2023-04-09T11:18:15.704Z,4.60
2023-04-09T11:20:42.610Z,5.20
2023-04-09T11:23:10.906Z,5.47
2023-04-09T11:25:40.026Z,4.60
2023-04-09T11:28:08.657Z,4.10
2023-04-09T11:30:37.652Z,4.33
2023-04-09T11:33:04.446Z,5.20
2023-04-09T11:35:35.696Z,5.50
2023-04-09T11:38:08.953Z,5.10
2023-04-09T11:40:36.399Z,5.27
2023-04-09T11:43:03.347Z,5.20
2023-04-09T11:45:32.449Z,5.07
2023-04-09T11:47:59.361Z,5.07
2023-04-09T11:50:26.386Z,4.33
2023-04-09T11:52:52.957Z,4.80
2023-04-09T11:55:37.724Z,5.20
2023-04-09T11:58:11.922Z,4.80
2023-04-09T12:00:41.082Z,4.87
2023-04-09T12:03:08.401Z,4.13
2023-04-09T12:05:35.825Z,5.30
2023-04-09T12:08:08.797Z,5.10
2023-04-09T12:10:37.718Z,5.47
2023-04-09T12:13:07.054Z,4.97
2023-04-09T12:15:38.655Z,4.87
2023-04-09T12:18:09.085Z,5.00
2023-04-09T12:20:44.264Z,5.10
2023-04-09T12:23:12.315Z,5.47
2023-04-09T12:25:41.169Z,4.70
2023-04-09T12:28:09.831Z,4.83
2023-04-09T12:30:36.657Z,5.20
2023-04-09T12:33:04.964Z,4.90
2023-04-09T12:35:32.361Z,4.90
2023-04-09T12:38:01.927Z,5.70
2023-04-09T12:40:28.621Z,5.60
2023-04-09T12:42:57.653Z,5.00
2023-04-09T12:45:24.315Z,5.50
2023-04-09T12:47:51.497Z,5.07
2023-04-09T12:50:18.127Z,5.57
2023-04-09T12:52:45.740Z,5.60
2023-04-09T12:55:16.202Z,5.33
2023-04-09T12:57:44.980Z,5.20
2023-04-09T13:00:12.498Z,5.00
2023-04-09T13:02:39.586Z,5.77
2023-04-09T13:05:06.792Z,4.67
2023-04-09T13:07:33.569Z,4.80
2023-04-09T13:10:00.162Z,4.50
2023-04-09T13:12:27.317Z,4.73
2023-04-09T13:14:55.096Z,4.70
2023-04-09T13:17:22.340Z,4.53
2023-04-09T13:19:49.745Z,5.30
2023-04-09T13:22:16.366Z,4.90
2023-04-09T13:24:43.574Z,5.33
2023-04-09T13:27:11.583Z,5.30
2023-04-09T13:29:38.735Z,5.07
2023-04-09T13:32:08.508Z,4.93
2023-04-09T13:34:35.682Z,5.50
2023-04-09T13:37:05.537Z,4.50
2023-04-09T13:39:32.277Z,5.37
2023-04-09T13:42:00.040Z,4.50
2023-04-09T13:44:28.670Z,4.87
2023-04-09T13:46:55.579Z,4.87
2023-04-09T13:49:22.377Z,4.67
2023-04-09T13:51:49.399Z,5.00
2023-04-09T13:54:16.406Z,5.07
2023-04-09T13:56:44.576Z,4.60
2023-04-09T13:59:11.623Z,5.40
2023-04-09T14:01:38.352Z,5.57
2023-04-09T14:04:05.086Z,5.33
2023-04-09T14:06:31.803Z,5.30
2023-04-09T14:08:58.493Z,5.07
2023-04-09T14:11:25.172Z,5.13
2023-04-09T14:13:51.963Z,5.77
2023-04-09T14:16:19.396Z,5.07
2023-04-09T14:18:46.390Z,4.77
2023-04-09T14:21:15.644Z,5.30
2023-04-09T14:23:42.258Z,4.87
2023-04-09T14:26:09.048Z,5.23
2023-04-09T14:28:36.120Z,5.37
2023-04-09T14:31:02.707Z,4.80
2023-04-09T14:33:31.234Z,4.47
2023-04-09T14:35:59.034Z,4.57
2023-04-09T14:38:26.007Z,4.73
2023-04-09T14:40:52.875Z,4.13
2023-04-09T14:43:19.534Z,4.37
2023-04-09T14:45:46.527Z,4.20
2023-04-09T14:48:13.134Z,4.57
2023-04-09T14:50:39.989Z,4.27
2023-04-09T14:53:07.614Z,4.50
2023-04-09T14:55:34.715Z,4.23
2023-04-09T14:58:04.405Z,5.57
2023-04-09T15:00:32.089Z,4.23
2023-04-09T15:02:59.187Z,3.90
2023-04-09T15:05:26.708Z,4.73
2023-04-09T15:07:54.773Z,3.80
2023-04-09T15:10:21.496Z,4.27
2023-04-09T15:12:48.076Z,4.43
2023-04-09T15:15:14.807Z,4.13
2023-04-09T15:17:41.708Z,4.50
2023-04-09T15:20:09.201Z,3.87
2023-04-09T15:22:36.014Z,3.90
2023-04-09T15:25:02.650Z,3.80
2023-04-09T15:27:31.512Z,3.77
2023-04-09T15:29:58.280Z,3.83
2023-04-09T15:32:24.906Z,4.50
2023-04-09T15:34:51.599Z,3.70
2023-04-09T15:37:18.245Z,4.03
2023-04-09T15:39:44.896Z,3.33
2023-04-09T15:42:13.459Z,3.87
2023-04-09T15:44:41.593Z,3.73
2023-04-09T15:47:08.664Z,3.67
2023-04-09T15:49:37.006Z,3.70
2023-04-09T15:52:04.187Z,4.10
2023-04-09T15:54:31.080Z,3.77
2023-04-09T15:56:57.962Z,3.53
2023-04-09T15:59:24.604Z,3.70
2023-04-09T16:01:51.344Z,3.80
2023-04-09T16:04:18.005Z,3.60
2023-04-09T16:06:44.645Z,3.57
2023-04-09T16:09:11.541Z,3.80
2023-04-09T16:11:38.126Z,3.70
2023-04-09T16:14:04.782Z,3.67
2023-04-09T16:16:31.497Z,3.97
2023-04-09T16:18:58.180Z,4.40
2023-04-09T16:21:24.731Z,3.90
2023-04-09T16:23:52.524Z,4.07
2023-04-09T16:26:19.167Z,4.07
2023-04-09T16:28:45.858Z,3.93
2023-04-09T16:31:12.553Z,3.97
2023-04-09T16:33:39.220Z,4.03
2023-04-09T16:36:06.421Z,3.93
2023-04-09T16:38:33.148Z,3.70
2023-04-09T16:40:59.901Z,3.70
2023-04-09T16:43:26.765Z,3.90
2023-04-09T16:45:53.656Z,4.43
2023-04-09T16:48:22.815Z,3.97
2023-04-09T16:50:49.401Z,3.80
2023-04-09T16:53:16.170Z,3.90
2023-04-09T16:55:44.587Z,4.10
2023-04-09T16:58:11.351Z,3.63
2023-04-09T17:00:40.112Z,4.30
2023-04-09T17:03:07.115Z,3.87
2023-04-09T17:05:33.924Z,4.07
2023-04-09T17:08:01.276Z,3.80
2023-04-09T17:10:28.267Z,3.97
2023-04-09T17:12:54.931Z,3.63
2023-04-09T17:15:22.776Z,3.93
2023-04-09T17:17:51.440Z,3.90
2023-04-09T17:20:18.174Z,4.20
2023-04-09T17:22:44.953Z,3.90
2023-04-09T17:25:11.578Z,3.50
2023-04-09T17:27:38.185Z,4.03
2023-04-09T17:30:05.457Z,3.57
2023-04-09T17:32:32.110Z,3.80
2023-04-09T17:34:59.752Z,4.20
2023-04-09T17:37:28.926Z,4.20
2023-04-09T17:39:55.637Z,3.70
2023-04-09T17:42:23.503Z,4.37
2023-04-09T17:44:50.161Z,3.97
2023-04-09T17:47:17.217Z,3.53
2023-04-09T17:49:44.369Z,4.37
2023-04-09T17:52:11.019Z,3.70
2023-04-09T17:54:38.858Z,4.40
2023-04-09T17:57:07.367Z,3.83
2023-04-09T17:59:34.834Z,3.90
2023-04-09T18:02:02.368Z,3.77
2023-04-09T18:04:29.380Z,4.13
2023-04-09T18:06:56.449Z,3.93
2023-04-09T18:09:23.026Z,3.80
2023-04-09T18:11:53.562Z,4.10
2023-04-09T18:14:20.426Z,3.63
2023-04-09T18:16:47.445Z,3.57
2023-04-09T18:19:14.130Z,3.37
2023-04-09T18:21:40.806Z,3.70
2023-04-09T18:24:08.088Z,3.80
2023-04-09T18:26:34.726Z,3.80
2023-04-09T18:29:01.934Z,4.00
2023-04-09T18:31:28.795Z,3.47
2023-04-09T18:33:55.839Z,3.90
2023-04-09T18:36:22.461Z,3.97
2023-04-09T18:38:49.161Z,4.10
2023-04-09T18:41:26.144Z,3.70
2023-04-09T18:43:53.268Z,3.83
2023-04-09T18:46:19.981Z,4.20
2023-04-09T18:48:49.241Z,3.93
2023-04-09T18:51:16.878Z,3.83
2023-04-09T18:53:44.215Z,4.00
2023-04-09T18:56:11.610Z,3.40
2023-04-09T18:58:38.957Z,3.90
2023-04-09T19:01:12.309Z,3.80
2023-04-09T19:03:40.477Z,4.40
2023-04-09T19:06:18.453Z,4.33
2023-04-09T19:08:46.312Z,4.50
2023-04-09T19:11:13.619Z,4.30
2023-04-09T19:13:40.693Z,4.00
2023-04-09T19:16:09.505Z,4.20
2023-04-09T19:18:37.401Z,4.20
2023-04-09T19:21:05.594Z,4.67
2023-04-09T19:23:34.375Z,5.33
2023-04-09T19:26:02.042Z,5.90
2023-04-09T19:28:29.130Z,6.40
2023-04-09T19:31:00.062Z,7.23
2023-04-09T19:33:27.984Z,7.07
2023-04-09T19:35:55.461Z,6.97
2023-04-09T19:38:24.646Z,6.23
2023-04-09T19:40:51.593Z,6.00
2023-04-09T19:43:18.207Z,6.03
2023-04-09T19:45:45.039Z,5.87
2023-04-09T19:48:12.456Z,5.70
2023-04-09T19:50:41.266Z,6.10
2023-04-09T19:53:07.926Z,6.20
2023-04-09T19:55:34.977Z,5.43
2023-04-09T19:58:02.634Z,5.20
2023-04-09T20:00:29.484Z,5.07
2023-04-09T20:02:57.321Z,5.20
2023-04-09T20:05:24.196Z,5.07
2023-04-09T20:07:52.907Z,5.07
2023-04-09T20:10:19.964Z,4.70
2023-04-09T20:12:50.508Z,5.00
2023-04-09T20:15:20.540Z,4.70
2023-04-09T20:17:48.371Z,4.73
2023-04-09T20:20:18.053Z,5.33
2023-04-09T20:22:47.592Z,5.13
2023-04-09T20:25:14.466Z,5.07
2023-04-09T20:27:41.276Z,4.13
2023-04-09T20:30:08.521Z,4.87
2023-04-09T20:32:36.923Z,4.93
2023-04-09T20:35:04.513Z,5.10
2023-04-09T20:37:31.403Z,4.80
2023-04-09T20:39:59.636Z,5.37
2023-04-09T20:42:26.603Z,5.07
2023-04-09T20:44:53.430Z,5.37
2023-04-09T20:47:22.149Z,5.50
2023-04-09T20:49:51.075Z,5.73
2023-04-09T20:52:17.987Z,6.30
2023-04-09T20:54:45.516Z,6.73
2023-04-09T20:57:13.790Z,6.90
2023-04-09T20:59:40.760Z,7.07
2023-04-09T21:02:08.964Z,7.10
2023-04-09T21:04:35.659Z,7.50
2023-04-09T21:07:02.668Z,7.40
2023-04-09T21:09:29.739Z,7.47
2023-04-09T21:11:56.397Z,7.27
2023-04-09T21:14:23.161Z,6.97
2023-04-09T21:16:49.911Z,6.80
2023-04-09T21:19:18.996Z,6.57
2023-04-09T21:21:46.318Z,6.83
2023-04-09T21:24:13.520Z,6.10
2023-04-09T21:26:50.966Z,6.40
2023-04-09T21:29:20.972Z,5.80
2023-04-09T21:31:48.633Z,5.87
2023-04-09T21:34:15.790Z,5.70
2023-04-09T21:36:42.443Z,5.77
2023-04-09T21:39:09.604Z,5.50
2023-04-09T21:41:36.749Z,5.57
2023-04-09T21:44:08.316Z,5.73
2023-04-09T21:46:37.149Z,5.57
2023-04-09T21:49:04.442Z,5.77
2023-04-09T21:51:32.345Z,5.27
2023-04-09T21:54:04.192Z,5.27
2023-04-09T21:56:32.023Z,5.17
2023-04-09T21:58:58.726Z,5.63
2023-04-09T22:01:29.332Z,5.30
2023-04-09T22:03:57.911Z,5.33
2023-04-09T22:06:25.165Z,5.20
2023-04-09T22:08:56.013Z,4.50
2023-04-09T22:11:28.389Z,5.20
2023-04-09T22:13:56.107Z,5.20
2023-04-09T22:16:26.053Z,5.27
2023-04-09T22:18:54.499Z,5.17
2023-04-09T22:21:21.664Z,5.23
2023-04-09T22:23:48.423Z,5.40
2023-04-09T22:26:15.103Z,5.50
2023-04-09T22:28:41.710Z,5.33
2023-04-09T22:31:08.409Z,5.63
2023-04-09T22:33:35.084Z,5.47
2023-04-09T22:36:01.945Z,5.87
2023-04-09T22:38:28.678Z,5.57
2023-04-09T22:40:55.907Z,5.43
2023-04-09T22:43:22.889Z,5.73
2023-04-09T22:45:51.735Z,5.50
2023-04-09T22:48:19.439Z,5.57
2023-04-09T22:50:47.134Z,5.77
2023-04-09T22:53:20.933Z,5.57
2023-04-09T22:55:51.156Z,5.73
2023-04-09T22:58:18.389Z,5.43
2023-04-09T23:00:45.399Z,5.37
2023-04-09T23:03:12.142Z,5.00
2023-04-09T23:05:39.975Z,4.90
2023-04-09T23:08:06.704Z,5.57
2023-04-09T23:10:34.236Z,5.50
2023-04-09T23:13:00.979Z,5.17
2023-04-09T23:15:29.135Z,4.73
2023-04-09T23:17:56.238Z,4.70
2023-04-09T23:20:23.226Z,5.13
2023-04-09T23:22:50.068Z,5.50
2023-04-09T23:25:16.980Z,5.57
2023-04-09T23:27:44.155Z,4.90
2023-04-09T23:30:11.382Z,4.80
2023-04-09T23:32:38.182Z,5.33
2023-04-09T23:35:05.158Z,5.70
2023-04-09T23:37:32.183Z,5.20
2023-04-09T23:39:58.807Z,5.40
2023-04-09T23:42:26.858Z,5.70
2023-04-09T23:44:53.431Z,5.20
2023-04-09T23:47:22.666Z,5.17
2023-04-09T23:49:49.297Z,5.50
2023-04-09T23:52:16.172Z,4.83
2023-04-09T23:54:49.256Z,5.40
2023-04-09T23:57:16.542Z,5.20
2023-04-09T23:59:43.151Z,4.70
